Time;durP1;ratioP1;P1;durP2;ratioP2;P2;SDS_P1;SDS_P2;PMS_P1;PMS_P2;Temp;Humidity;BMP_temperature;BMP_pressure;BME280_temperature;BME280_humidity;BME280_pressure;Samples;Min_cycle;Max_cycle;Signal;HPM_P1;HPM_P2
2021/03/29 00:00:21;;;;;;;9.35;2.85;;;6.90;42.00;;;;;;5133948;27;20207;-71
2021/03/29 00:02:49;;;;;;;3.42;2.53;;;6.80;42.70;;;;;;5134377;27;20192;-71
2021/03/29 00:05:22;;;;;;;4.32;3.25;;;6.80;42.60;;;;;;5134010;27;20199;-70
2021/03/29 00:07:51;;;;;;;6.53;2.60;;;6.70;42.70;;;;;;5134426;27;20188;-70
2021/03/29 00:10:19;;;;;;;3.22;2.20;;;6.70;42.70;;;;;;5134295;27;20187;-70
2021/03/29 00:12:53;;;;;;;5.03;2.88;;;6.70;42.80;;;;;;5134056;27;20230;-71
2021/03/29 00:15:23;;;;;;;5.28;2.88;;;6.60;42.80;;;;;;5134144;27;20590;-70
2021/03/29 00:17:51;;;;;;;3.65;2.42;;;6.60;42.80;;;;;;5134302;27;20227;-70
2021/03/29 00:20:25;;;;;;;5.38;2.97;;;6.50;42.50;;;;;;5133988;27;20243;-71
2021/03/29 00:22:55;;;;;;;4.38;3.08;;;6.50;42.90;;;;;;5134012;27;20194;-70
2021/03/29 00:25:22;;;;;;;4.55;2.80;;;6.50;43.00;;;;;;5133873;27;20183;-70
2021/03/29 00:27:49;;;;;;;5.10;4.10;;;6.50;43.30;;;;;;5134090;27;20639;-70
2021/03/29 00:30:23;;;;;;;5.38;3.30;;;6.50;43.80;;;;;;5134179;27;20267;-70
2021/03/29 00:32:52;;;;;;;4.28;2.80;;;6.50;43.70;;;;;;5134456;27;20202;-70
2021/03/29 00:35:21;;;;;;;6.50;3.00;;;6.40;43.30;;;;;;5134104;27;20560;-71
2021/03/29 00:37:53;;;;;;;6.03;3.13;;;6.40;43.20;;;;;;5133817;27;20230;-71
2021/03/29 00:40:21;;;;;;;6.57;4.25;;;6.40;43.80;;;;;;5133993;27;20280;-70
2021/03/29 00:42:57;;;;;;;4.68;3.17;;;6.40;44.40;;;;;;5134016;27;20188;-70
2021/03/29 00:45:24;;;;;;;4.85;3.00;;;6.30;44.40;;;;;;5134065;27;20190;-70
2021/03/29 00:47:52;;;;;;;4.40;2.67;;;6.30;44.30;;;;;;5133446;27;20243;-71
2021/03/29 00:50:31;;;;;;;4.50;3.15;;;6.30;44.50;;;;;;5133538;27;20688;-70
2021/03/29 00:52:58;;;;;;;6.00;2.58;;;6.20;43.80;;;;;;5136743;27;20198;-70
2021/03/29 00:55:26;;;;;;;4.38;3.30;;;6.10;43.80;;;;;;5140512;27;20194;-70
2021/03/29 00:57:53;;;;;;;4.72;2.80;;;6.00;44.30;;;;;;5140596;27;20187;-70
2021/03/29 01:00:24;;;;;;;3.70;3.10;;;6.00;44.00;;;;;;5140327;27;21015;-70
2021/03/29 01:02:52;;;;;;;4.50;3.28;;;5.90;44.50;;;;;;5140704;27;20275;-70
2021/03/29 01:05:21;;;;;;;3.35;2.53;;;5.80;45.20;;;;;;5140515;27;20545;-70
2021/03/29 01:07:50;;;;;;;4.70;2.65;;;5.80;45.00;;;;;;5140731;27;20196;-70
2021/03/29 01:10:17;;;;;;;7.70;2.30;;;5.80;45.10;;;;;;5140581;27;20225;-70
2021/03/29 01:12:47;;;;;;;4.47;2.80;;;5.70;44.90;;;;;;5140521;27;20191;-70
2021/03/29 01:15:17;;;;;;;4.10;2.70;;;5.70;44.90;;;;;;5140420;27;20191;-70
2021/03/29 01:17:45;;;;;;;4.93;3.08;;;5.70;45.00;;;;;;5140352;27;20195;-70
2021/03/29 01:20:28;;;;;;;6.05;2.63;;;5.70;45.40;;;;;;5140386;27;20219;-71
2021/03/29 01:22:56;;;;;;;5.03;2.80;;;5.60;45.30;;;;;;5140133;27;20198;-70
2021/03/29 01:25:27;;;;;;;4.40;2.45;;;5.60;45.20;;;;;;5140308;27;20202;-71
2021/03/29 01:27:59;;;;;;;2.72;1.85;;;5.60;45.40;;;;;;5140486;27;20191;-70
2021/03/29 01:30:28;;;;;;;3.72;2.88;;;5.50;45.90;;;;;;5140397;27;20264;-70
2021/03/29 01:32:56;;;;;;;3.90;2.25;;;5.40;45.70;;;;;;5140117;27;20283;-71
2021/03/29 01:35:28;;;;;;;3.88;2.20;;;5.30;45.60;;;;;;5140522;27;20184;-70
2021/03/29 01:37:57;;;;;;;4.15;2.55;;;5.30;45.60;;;;;;5140193;27;20192;-70
2021/03/29 01:40:23;;;;;;;4.80;2.33;;;5.40;45.60;;;;;;5140165;27;20211;-70
2021/03/29 01:42:51;;;;;;;3.03;2.05;;;5.40;45.40;;;;;;5140187;27;20230;-70
2021/03/29 01:45:20;;;;;;;5.85;2.38;;;5.50;45.90;;;;;;5139903;27;20191;-70
2021/03/29 01:47:48;;;;;;;4.03;2.30;;;5.50;45.50;;;;;;5139715;27;20223;-71
2021/03/29 01:50:18;;;;;;;7.43;2.67;;;5.40;45.60;;;;;;5140332;27;20222;-71
2021/03/29 01:52:50;;;;;;;6.13;2.47;;;5.40;46.00;;;;;;5139983;27;20610;-70
2021/03/29 01:55:22;;;;;;;3.60;2.25;;;5.40;45.70;;;;;;5140022;27;20199;-70
2021/03/29 01:57:49;;;;;;;4.88;2.25;;;5.40;45.80;;;;;;5140181;27;20251;-70
2021/03/29 02:00:23;;;;;;;4.53;2.58;;;5.30;45.40;;;;;;5139723;27;20219;-70
2021/03/29 02:02:50;;;;;;;5.60;3.45;;;5.30;46.20;;;;;;5140079;27;20650;-69
2021/03/29 02:05:18;;;;;;;5.00;2.13;;;5.20;46.50;;;;;;5136578;27;20654;-70
2021/03/29 02:07:46;;;;;;;3.92;2.13;;;5.20;46.40;;;;;;5136858;27;20575;-70
2021/03/29 02:10:19;;;;;;;4.07;2.20;;;5.20;46.30;;;;;;5136549;27;20230;-70
2021/03/29 02:12:46;;;;;;;3.42;2.22;;;5.20;46.00;;;;;;5136618;27;20191;-70
2021/03/29 02:15:23;;;;;;;4.50;2.45;;;5.10;45.50;;;;;;5136374;27;20566;-70
2021/03/29 02:17:52;;;;;;;6.65;2.83;;;5.10;46.00;;;;;;5136396;27;20195;-70
2021/03/29 02:20:21;;;;;;;5.07;2.63;;;5.00;46.40;;;;;;5136679;27;20223;-70
2021/03/29 02:22:48;;;;;;;4.47;2.92;;;5.00;46.90;;;;;;5136563;27;20194;-70
2021/03/29 02:25:16;;;;;;;5.32;2.65;;;4.90;47.20;;;;;;5136648;27;20191;-70
2021/03/29 02:27:47;;;;;;;5.32;2.58;;;4.90;47.50;;;;;;5136342;27;20553;-70
2021/03/29 02:30:16;;;;;;;5.13;2.70;;;4.90;47.40;;;;;;5136205;27;20196;-70
2021/03/29 02:32:45;;;;;;;3.80;2.30;;;4.90;47.50;;;;;;5136078;27;20196;-70
2021/03/29 02:35:13;;;;;;;5.22;3.05;;;4.90;47.70;;;;;;5136310;27;20207;-70
2021/03/29 02:37:47;;;;;;;5.15;2.85;;;4.80;47.90;;;;;;5136043;27;20596;-70
2021/03/29 02:40:16;;;;;;;6.40;4.22;;;4.80;47.80;;;;;;5136100;27;20214;-70
2021/03/29 02:42:45;;;;;;;4.13;2.60;;;4.80;47.70;;;;;;5136154;27;20718;-70
2021/03/29 02:45:14;;;;;;;4.65;2.40;;;4.80;47.60;;;;;;5136055;27;20253;-70
2021/03/29 02:47:41;;;;;;;6.40;2.72;;;4.80;47.60;;;;;;5135701;27;20600;-70
2021/03/29 02:50:11;;;;;;;5.25;2.97;;;4.80;47.60;;;;;;5135605;27;20598;-70
2021/03/29 02:52:41;;;;;;;5.50;3.03;;;4.80;47.00;;;;;;5135769;27;20191;-71
2021/03/29 02:55:09;;;;;;;4.43;2.95;;;4.70;47.10;;;;;;5135975;27;20192;-70
2021/03/29 02:57:37;;;;;;;4.80;2.88;;;4.70;46.90;;;;;;5135824;27;20710;-70
2021/03/29 03:00:09;;;;;;;6.00;2.60;;;4.60;47.20;;;;;;5135757;27;20219;-70
2021/03/29 03:02:36;;;;;;;3.83;2.55;;;4.50;46.90;;;;;;5135667;27;20188;-70
2021/03/29 03:05:05;;;;;;;11.55;3.00;;;4.40;47.20;;;;;;5135596;27;20333;-70
2021/03/29 03:07:33;;;;;;;3.90;2.35;;;4.30;47.50;;;;;;5135631;27;20207;-71
2021/03/29 03:10:02;;;;;;;4.15;2.53;;;4.30;47.70;;;;;;5135362;27;20188;-71
2021/03/29 03:12:30;;;;;;;6.43;2.65;;;4.20;47.90;;;;;;5135221;27;20234;-70
2021/03/29 03:14:57;;;;;;;5.30;3.20;;;4.30;48.30;;;;;;5135143;27;20188;-70
2021/03/29 03:17:24;;;;;;;5.03;2.85;;;4.20;48.30;;;;;;5134102;27;20234;-70
2021/03/29 03:19:55;;;;;;;5.22;3.40;;;4.20;48.10;;;;;;5135203;27;20223;-71
2021/03/29 03:22:21;;;;;;;4.55;2.97;;;4.20;48.20;;;;;;5135298;27;20188;-70
2021/03/29 03:24:49;;;;;;;6.03;2.70;;;4.20;48.10;;;;;;5135503;27;20213;-70
2021/03/29 03:27:15;;;;;;;4.80;2.72;;;4.10;48.90;;;;;;5135313;27;20287;-70
2021/03/29 03:29:43;;;;;;;4.75;2.95;;;4.10;48.50;;;;;;5135209;27;20214;-71
2021/03/29 03:32:12;;;;;;;3.45;2.45;;;4.10;48.40;;;;;;5135317;27;20188;-70
2021/03/29 03:34:39;;;;;;;4.25;2.88;;;4.10;48.50;;;;;;5134956;27;20227;-71
2021/03/29 03:37:15;;;;;;;9.43;2.33;;;4.00;48.30;;;;;;5134980;27;20188;-70
2021/03/29 03:39:49;;;;;;;6.35;3.55;;;4.00;48.40;;;;;;5134797;27;20198;-71
2021/03/29 03:42:17;;;;;;;8.10;4.30;;;3.90;48.70;;;;;;5134949;27;20191;-70
2021/03/29 03:44:45;;;;;;;8.48;3.50;;;3.90;48.80;;;;;;5134699;27;20443;-70
2021/03/29 03:47:16;;;;;;;7.60;4.72;;;4.00;48.40;;;;;;5134322;27;20788;-71
2021/03/29 03:49:44;;;;;;;8.68;4.93;;;4.00;48.30;;;;;;5134931;27;20198;-70
2021/03/29 03:52:18;;;;;;;5.43;3.45;;;4.00;48.50;;;;;;5134593;27;21164;-70
2021/03/29 03:54:46;;;;;;;4.72;3.10;;;3.90;49.00;;;;;;5134944;27;20532;-71
2021/03/29 03:57:14;;;;;;;5.63;3.28;;;3.90;49.20;;;;;;5134694;27;20583;-70
2021/03/29 03:59:46;;;;;;;7.20;3.92;;;3.90;49.10;;;;;;5134618;27;20294;-70
2021/03/29 04:02:17;;;;;;;5.90;3.72;;;3.90;49.40;;;;;;5134643;27;20191;-70
2021/03/29 04:04:44;;;;;;;6.93;3.83;;;3.90;49.70;;;;;;5134913;27;20210;-71
2021/03/29 04:07:15;;;;;;;6.93;3.75;;;3.90;49.50;;;;;;5134812;27;20988;-70
2021/03/29 04:09:45;;;;;;;7.03;3.20;;;3.90;49.50;;;;;;5134769;27;20238;-70
2021/03/29 04:12:14;;;;;;;4.78;3.40;;;4.00;49.80;;;;;;5134670;27;20294;-70
2021/03/29 04:14:40;;;;;;;4.25;2.40;;;3.90;49.60;;;;;;5134410;27;20184;-70
2021/03/29 04:17:07;;;;;;;4.38;2.85;;;3.90;49.00;;;;;;5134468;27;20222;-70
2021/03/29 04:19:34;;;;;;;4.60;3.05;;;3.90;49.30;;;;;;5134307;27;20191;-71
2021/03/29 04:22:01;;;;;;;4.97;2.75;;;3.80;49.60;;;;;;5134599;27;20195;-70
2021/03/29 04:24:29;;;;;;;5.20;3.33;;;3.80;49.40;;;;;;5134182;27;20183;-70
2021/03/29 04:26:57;;;;;;;3.75;2.83;;;3.90;49.00;;;;;;5134002;27;20541;-70
2021/03/29 04:29:26;;;;;;;4.63;2.90;;;3.90;49.20;;;;;;5134242;27;20223;-71
2021/03/29 04:31:53;;;;;;;3.83;3.00;;;3.80;49.10;;;;;;5134284;27;20247;-70
2021/03/29 04:34:24;;;;;;;5.22;3.03;;;3.80;49.30;;;;;;5134403;27;20255;-71
2021/03/29 04:36:51;;;;;;;5.07;3.30;;;3.80;48.90;;;;;;5134322;27;20221;-70
2021/03/29 04:39:23;;;;;;;4.90;3.03;;;3.80;49.00;;;;;;5134431;27;20187;-70
2021/03/29 04:41:49;;;;;;;5.72;3.35;;;3.80;48.90;;;;;;5134197;27;20215;-70
2021/03/29 04:44:16;;;;;;;3.97;2.90;;;3.70;48.80;;;;;;5134332;27;20245;-70
2021/03/29 04:46:44;;;;;;;3.42;2.22;;;3.70;49.10;;;;;;5133998;27;20232;-70
2021/03/29 04:49:10;;;;;;;5.05;2.45;;;3.70;49.30;;;;;;5134256;27;20188;-70
2021/03/29 04:51:37;;;;;;;3.85;2.45;;;3.70;49.00;;;;;;5134191;27;20203;-70
2021/03/29 04:54:04;;;;;;;7.10;4.07;;;3.70;49.20;;;;;;5133965;27;20219;-70
2021/03/29 04:56:33;;;;;;;8.50;4.43;;;3.60;49.70;;;;;;5134053;27;20195;-70
2021/03/29 04:58:59;;;;;;;11.57;6.57;;;3.60;49.90;;;;;;5133991;27;20190;-70
2021/03/29 05:01:31;;;;;;;5.95;4.13;;;3.60;50.20;;;;;;5131563;27;20222;-71
2021/03/29 05:03:59;;;;;;;5.28;2.75;;;3.60;50.00;;;;;;5133839;27;20199;-70
2021/03/29 05:06:30;;;;;;;3.65;2.50;;;3.60;50.20;;;;;;5133921;27;20234;-70
2021/03/29 05:08:57;;;;;;;6.00;3.33;;;3.60;50.30;;;;;;5130942;28;20183;-70
2021/03/29 05:11:23;;;;;;;8.18;2.75;;;3.60;50.00;;;;;;5112989;28;20196;-70
2021/03/29 05:13:50;;;;;;;4.80;2.80;;;3.60;50.20;;;;;;5113235;28;20279;-70
2021/03/29 05:16:21;;;;;;;3.95;2.55;;;3.60;50.20;;;;;;5117309;28;20225;-70
2021/03/29 05:18:52;;;;;;;5.03;2.85;;;3.60;50.10;;;;;;5133496;27;20665;-69
2021/03/29 05:21:20;;;;;;;4.68;2.75;;;3.60;50.30;;;;;;5133368;27;20708;-69
2021/03/29 05:23:49;;;;;;;4.95;2.70;;;3.50;50.10;;;;;;5133453;27;20188;-69
2021/03/29 05:26:16;;;;;;;7.90;3.90;;;3.60;50.30;;;;;;5133370;27;20234;-69
2021/03/29 05:28:43;;;;;;;11.32;4.13;;;3.50;50.40;;;;;;5129770;27;20313;-72
2021/03/29 05:31:10;;;;;;;6.10;4.07;;;3.50;50.70;;;;;;5132690;27;20188;-71
2021/03/29 05:33:39;;;;;;;7.47;4.72;;;3.40;50.60;;;;;;5133137;27;20195;-71
2021/03/29 05:36:11;;;;;;;10.50;4.20;;;3.40;50.70;;;;;;5132912;27;20650;-71
2021/03/29 05:38:40;;;;;;;7.95;5.10;;;3.40;51.00;;;;;;5132508;27;20180;-71
2021/03/29 05:41:07;;;;;;;8.55;4.80;;;3.40;50.80;;;;;;5136562;27;20223;-71
2021/03/29 05:43:34;;;;;;;7.70;4.72;;;3.50;51.30;;;;;;5136654;27;20262;-71
2021/03/29 05:46:01;;;;;;;9.68;4.93;;;3.50;50.90;;;;;;5135873;27;20186;-71
2021/03/29 05:48:33;;;;;;;7.10;5.00;;;3.50;51.10;;;;;;5136637;27;20277;-72
2021/03/29 05:51:13;;;;;;;3.95;3.30;;;3.60;51.40;;;;;;5136881;27;20199;-72
2021/03/29 05:53:46;;;;;;;5.10;3.50;;;3.60;51.40;;;;;;5136461;27;20192;-72
2021/03/29 05:56:16;;;;;;;5.95;2.88;;;3.70;51.60;;;;;;5136671;27;20191;-75
2021/03/29 05:58:45;;;;;;;4.72;3.15;;;3.80;51.20;;;;;;5136294;27;20211;-76
2021/03/29 06:01:16;;;;;;;5.35;2.33;;;3.80;51.20;;;;;;5136630;27;20220;-75
2021/03/29 06:03:43;;;;;;;4.22;2.53;;;4.00;51.20;;;;;;5135822;27;20642;-75
2021/03/29 06:06:21;;;;;;;4.10;2.55;;;4.10;51.10;;;;;;5136447;27;20283;-75
2021/03/29 06:08:50;;;;;;;5.15;3.20;;;4.10;50.50;;;;;;5135685;27;20191;-74
2021/03/29 06:11:27;;;;;;;4.00;2.85;;;4.20;50.30;;;;;;5136789;27;20268;-76
2021/03/29 06:14:11;;;;;;;4.63;2.60;;;4.30;50.40;;;;;;5136538;27;20230;-72
2021/03/29 06:17:09;;;;;;;4.28;2.58;;;4.50;50.20;;;;;;5136465;27;20660;-72
2021/03/29 06:19:58;;;;;;;3.85;2.55;;;4.60;49.70;;;;;;5073171;28;20201;-72
2021/03/29 06:22:29;;;;;;;4.35;2.95;;;4.80;49.40;;;;;;5117576;27;20184;-72
2021/03/29 06:25:09;;;;;;;5.00;3.42;;;5.00;49.80;;;;;;5136451;27;20245;-72
2021/03/29 06:27:42;;;;;;;5.93;3.88;;;5.20;49.40;;;;;;5135756;27;20638;-72
2021/03/29 06:30:22;;;;;;;10.23;4.03;;;5.50;49.70;;;;;;5136280;27;20554;-72
2021/03/29 06:33:05;;;;;;;5.32;3.72;;;5.60;48.40;;;;;;5115643;28;20202;-72
2021/03/29 06:35:38;;;;;;;6.70;4.20;;;5.70;47.90;;;;;;5116897;27;20188;-73
2021/03/29 06:38:16;;;;;;;5.28;3.35;;;5.80;47.70;;;;;;5135040;27;20190;-72
2021/03/29 06:40:59;;;;;;;5.35;2.80;;;6.00;47.70;;;;;;5135960;27;20225;-73
2021/03/29 06:43:40;;;;;;;3.83;2.53;;;6.20;47.50;;;;;;5135597;27;20176;-72
2021/03/29 06:46:20;;;;;;;4.57;3.22;;;6.50;47.30;;;;;;5133910;27;20196;-72
2021/03/29 06:48:47;;;;;;;4.10;2.75;;;6.70;46.60;;;;;;5133605;27;20616;-73
2021/03/29 06:51:18;;;;;;;4.78;3.45;;;6.90;46.50;;;;;;5135212;27;20676;-72
2021/03/29 06:53:52;;;;;;;6.70;3.30;;;7.10;46.30;;;;;;5134801;27;20190;-73
2021/03/29 06:56:28;;;;;;;5.85;2.90;;;7.30;46.20;;;;;;5135403;27;20198;-72
2021/03/29 06:59:20;;;;;;;6.30;3.08;;;7.70;46.10;;;;;;5135653;27;20701;-73
2021/03/29 07:01:48;;;;;;;8.18;3.05;;;8.10;45.10;;;;;;5135311;27;20218;-73
2021/03/29 07:04:22;;;;;;;7.00;3.47;;;8.40;45.10;;;;;;5134019;27;20175;-73
2021/03/29 07:06:57;;;;;;;6.82;3.80;;;8.70;45.00;;;;;;5134248;27;20442;-72
2021/03/29 07:09:25;;;;;;;4.07;1.92;;;9.20;43.30;;;;;;5135516;27;20191;-72
2021/03/29 07:12:10;;;;;;;7.13;3.17;;;9.70;42.30;;;;;;5135488;27;20654;-72
2021/03/29 07:14:52;;;;;;;10.32;3.55;;;10.30;40.20;;;;;;5133867;27;20179;-73
2021/03/29 07:17:26;;;;;;;5.75;3.13;;;11.00;37.80;;;;;;5135296;27;20187;-73
2021/03/29 07:19:56;;;;;;;5.75;2.90;;;11.40;37.50;;;;;;5135144;27;20656;-73
2021/03/29 07:22:24;;;;;;;6.75;2.90;;;12.20;39.70;;;;;;5134963;27;20188;-73
2021/03/29 07:25:00;;;;;;;9.60;2.88;;;13.10;38.00;;;;;;5135334;27;20759;-73
2021/03/29 07:27:31;;;;;;;5.65;2.60;;;14.30;37.80;;;;;;5133588;27;20689;-73
2021/03/29 07:30:03;;;;;;;6.50;2.58;;;15.50;36.00;;;;;;5134471;27;20187;-73
2021/03/29 07:32:34;;;;;;;6.15;2.45;;;17.10;36.00;;;;;;5133915;27;20190;-73
2021/03/29 07:35:10;;;;;;;3.53;2.92;;;19.10;31.40;;;;;;5134749;27;20183;-73
2021/03/29 07:37:44;;;;;;;4.10;2.70;;;21.40;29.20;;;;;;5134841;27;20198;-73
2021/03/29 07:40:39;;;;;;;6.13;2.93;;;23.10;25.30;;;;;;5114129;28;20212;-74
2021/03/29 07:43:13;;;;;;;4.67;3.23;;;24.90;24.30;;;;;;5116800;27;21257;-73
2021/03/29 07:45:52;;;;;;;5.03;2.87;;;26.40;22.30;;;;;;5134685;27;20440;-73
2021/03/29 07:48:39;;;;;;;5.83;2.90;;;28.00;21.30;;;;;;5133772;27;21053;-73
2021/03/29 07:51:12;;;;;;;4.50;3.00;;;29.80;19.40;;;;;;5134463;27;20433;-73
2021/03/29 07:53:47;;;;;;;4.70;2.43;;;31.20;18.20;;;;;;5134088;27;20485;-73
2021/03/29 07:56:45;;;;;;;6.57;3.20;;;32.20;16.60;;;;;;5134546;27;21014;-74
2021/03/29 07:59:13;;;;;;;3.43;2.47;;;33.30;15.40;;;;;;5134192;27;20425;-74
2021/03/29 08:02:05;;;;;;;4.87;2.47;;;34.30;15.50;;;;;;5133345;27;20451;-73
2021/03/29 08:05:01;;;;;;;4.93;2.57;;;35.50;13.80;;;;;;5119787;27;21019;-73
2021/03/29 08:07:38;;;;;;;5.63;2.43;;;36.40;11.80;;;;;;5134119;27;20458;-74
2021/03/29 08:10:09;;;;;;;3.63;2.00;;;37.30;11.80;;;;;;5134323;27;20434;-74
2021/03/29 08:12:36;;;;;;;4.37;2.60;;;37.60;10.80;;;;;;5133132;27;20439;-73
2021/03/29 08:15:06;;;;;;;4.33;2.10;;;38.10;10.60;;;;;;5134398;27;20441;-73
2021/03/29 08:17:45;;;;;;;4.50;2.37;;;38.70;9.00;;;;;;5133852;27;20434;-72
2021/03/29 08:20:28;;;;;;;9.10;2.27;;;39.30;8.80;;;;;;5133880;27;20497;-71
2021/03/29 08:23:32;;;;;;;5.03;1.90;;;39.80;8.10;;;;;;5130385;27;20429;-72
2021/03/29 08:26:20;;;;;;;5.97;2.00;;;40.40;8.30;;;;;;5124114;27;20515;-72
2021/03/29 08:29:16;;;;;;;4.60;2.30;;;41.30;7.30;;;;;;5129601;27;20494;-72
2021/03/29 08:32:16;;;;;;;4.87;2.63;;;41.90;7.00;;;;;;5133282;27;20476;-72
2021/03/29 08:34:52;;;;;;;5.70;2.77;;;42.40;7.00;;;;;;5070247;28;20489;-72
2021/03/29 08:37:23;;;;;;;4.10;2.30;;;43.10;7.50;;;;;;5124557;27;20443;-72
2021/03/29 08:39:51;;;;;;;3.27;2.00;;;43.90;7.40;;;;;;5133021;27;20425;-72
2021/03/29 08:42:24;;;;;;;3.83;2.07;;;44.30;6.50;;;;;;5134007;27;20498;-72
2021/03/29 08:44:57;;;;;;;7.07;2.37;;;44.70;6.50;;;;;;5133757;27;20763;-72
2021/03/29 08:47:26;;;;;;;2.97;2.00;;;44.60;6.00;;;;;;5133500;27;20471;-72
2021/03/29 08:49:57;;;;;;;5.30;2.43;;;44.60;5.80;;;;;;5133108;27;20429;-73
2021/03/29 08:52:39;;;;;;;3.00;1.40;;;44.80;6.50;;;;;;5133811;27;20515;-73
2021/03/29 08:55:06;;;;;;;4.40;1.73;;;44.90;5.70;;;;;;5133293;27;20430;-73
2021/03/29 08:57:33;;;;;;;7.00;2.00;;;45.00;5.00;;;;;;5132600;27;20433;-73
2021/03/29 09:00:04;;;;;;;3.43;1.93;;;44.90;4.90;;;;;;5133662;27;20437;-73
2021/03/29 09:02:33;;;;;;;3.40;1.67;;;45.00;5.20;;;;;;5132950;27;20441;-73
2021/03/29 09:05:04;;;;;;;4.30;2.00;;;45.10;4.90;;;;;;5133221;27;20441;-73
2021/03/29 09:07:32;;;;;;;4.27;2.23;;;45.60;4.80;;;;;;5133516;27;20433;-73
2021/03/29 09:10:01;;;;;;;2.97;1.60;;;45.80;4.90;;;;;;5132806;27;20528;-73
2021/03/29 09:12:32;;;;;;;4.00;2.03;;;46.50;5.50;;;;;;5133392;27;20492;-73
2021/03/29 09:15:00;;;;;;;4.03;1.97;;;47.30;4.80;;;;;;5129870;27;20434;-73
2021/03/29 09:17:33;;;;;;;3.30;2.00;;;48.00;3.80;;;;;;5136900;27;20464;-73
2021/03/29 09:20:01;;;;;;;3.83;2.00;;;48.30;3.80;;;;;;5137621;27;20541;-73
2021/03/29 09:22:36;;;;;;;3.90;2.00;;;48.70;4.00;;;;;;5137153;27;20440;-73
2021/03/29 09:25:05;;;;;;;2.63;1.63;;;49.20;4.00;;;;;;5137045;27;20436;-73
2021/03/29 09:27:45;;;;;;;5.10;2.00;;;49.80;3.60;;;;;;5136363;27;20700;-73
2021/03/29 09:30:13;;;;;;;3.43;1.93;;;49.80;3.00;;;;;;5137178;27;20433;-74
2021/03/29 09:32:44;;;;;;;4.33;1.70;;;50.20;3.10;;;;;;5136780;27;20433;-74
2021/03/29 09:35:12;;;;;;;2.90;1.60;;;50.70;2.90;;;;;;5136989;27;20437;-74
2021/03/29 09:37:48;;;;;;;2.50;1.50;;;51.00;2.30;;;;;;5136324;27;20487;-74
2021/03/29 09:40:19;;;;;;;3.27;1.90;;;51.30;2.30;;;;;;5136945;27;20439;-73
2021/03/29 09:42:48;;;;;;;2.87;1.50;;;51.60;2.50;;;;;;5136725;27;20947;-74
2021/03/29 09:45:23;;;;;;;3.33;1.50;;;52.10;2.70;;;;;;5136799;27;20429;-74
2021/03/29 09:48:01;;;;;;;3.30;1.70;;;52.20;1.90;;;;;;5135805;27;20471;-74
2021/03/29 09:50:33;;;;;;;2.70;1.80;;;52.10;2.90;;;;;;5136255;27;20471;-74
2021/03/29 09:53:15;;;;;;;7.00;2.00;;;52.20;2.00;;;;;;5136230;27;20428;-74
2021/03/29 09:56:04;;;;;;;2.77;1.70;;;51.90;2.90;;;;;;5136013;27;20437;-74
2021/03/29 09:58:33;;;;;;;4.20;1.97;;;52.80;2.60;;;;;;5136712;27;20437;-74
2021/03/29 10:01:02;;;;;;;3.97;1.87;;;53.70;2.30;;;;;;5135886;27;20826;-74
2021/03/29 10:03:31;;;;;;;3.40;2.00;;;53.70;2.00;;;;;;5136711;27;20755;-74
2021/03/29 10:05:57;;;;;;;3.87;1.57;;;53.70;2.30;;;;;;5136587;27;20551;-74
2021/03/29 10:08:31;;;;;;;3.10;1.63;;;54.10;2.10;;;;;;5136765;27;20434;-74
2021/03/29 10:11:10;;;;;;;3.63;1.50;;;54.10;1.80;;;;;;5135870;27;20430;-74
2021/03/29 10:13:42;;;;;;;4.10;2.60;;;53.90;1.60;;;;;;5136481;27;20477;-74
2021/03/29 10:16:23;;;;;;;2.87;1.67;;;54.20;2.00;;;;;;5135877;27;20453;-75
2021/03/29 10:19:04;;;;;;;3.17;2.37;;;54.40;1.50;;;;;;5136293;27;20437;-74
2021/03/29 10:21:33;;;;;;;5.10;2.97;;;53.20;1.70;;;;;;5135731;27;20479;-73
2021/03/29 10:24:14;;;;;;;3.10;2.40;;;51.20;1.80;;;;;;5136404;27;20437;-74
2021/03/29 10:26:52;;;;;;;2.40;1.70;;;48.20;1.60;;;;;;5135159;27;20795;-73
2021/03/29 10:29:36;;;;;;;3.73;2.47;;;45.20;2.30;;;;;;5136238;27;20440;-73
2021/03/29 10:32:10;;;;;;;5.53;2.20;;;43.00;3.30;;;;;;5135258;27;20810;-73
2021/03/29 10:34:44;;;;;;;3.30;2.37;;;41.60;3.40;;;;;;5136032;27;20782;-73
2021/03/29 10:37:20;;;;;;;2.73;2.07;;;40.30;3.60;;;;;;5135434;27;20436;-73
2021/03/29 10:39:47;;;;;;;6.33;2.40;;;39.20;4.00;;;;;;5136295;27;20445;-73
2021/03/29 10:42:15;;;;;;;4.37;1.87;;;38.20;5.40;;;;;;5134971;27;20530;-73
2021/03/29 10:44:42;;;;;;;2.70;1.90;;;37.20;5.90;;;;;;5135581;27;20529;-73
2021/03/29 10:47:09;;;;;;;2.27;1.63;;;36.90;7.10;;;;;;5135286;27;20469;-73
2021/03/29 10:49:36;;;;;;;4.60;2.73;;;37.00;6.70;;;;;;5135309;27;20433;-73
2021/03/29 10:52:04;;;;;;;3.70;2.37;;;36.60;6.90;;;;;;5135782;27;20459;-72
2021/03/29 10:54:31;;;;;;;4.27;1.90;;;36.80;6.50;;;;;;5135330;27;20833;-72
2021/03/29 10:56:58;;;;;;;4.07;2.23;;;36.20;6.20;;;;;;5134945;27;20425;-72
2021/03/29 10:59:25;;;;;;;7.90;1.93;;;35.30;5.80;;;;;;5128734;27;20442;-72
2021/03/29 11:01:54;;;;;;;3.10;2.03;;;34.50;7.30;;;;;;5129528;27;20615;-72
2021/03/29 11:04:22;;;;;;;3.93;2.73;;;35.20;8.60;;;;;;5147235;27;20442;-72
2021/03/29 11:06:49;;;;;;;6.60;2.30;;;38.00;9.20;;;;;;5135258;27;20870;-73
2021/03/29 11:09:16;;;;;;;5.43;2.20;;;42.10;7.60;;;;;;5135011;27;20441;-73
2021/03/29 11:11:43;;;;;;;2.90;2.10;;;45.50;5.90;;;;;;5135341;27;20438;-73
2021/03/29 11:14:15;;;;;;;4.30;1.90;;;47.70;5.20;;;;;;5134814;27;20445;-74
2021/03/29 11:16:42;;;;;;;4.10;2.17;;;49.50;4.20;;;;;;5135032;27;20501;-74
2021/03/29 11:19:14;;;;;;;5.30;2.60;;;50.70;4.00;;;;;;5134972;27;21797;-74
2021/03/29 11:21:41;;;;;;;3.10;2.20;;;51.90;3.50;;;;;;5134997;27;20594;-74
2021/03/29 11:24:08;;;;;;;3.17;2.00;;;52.60;3.30;;;;;;5134532;27;20437;-75
2021/03/29 11:26:36;;;;;;;4.73;2.20;;;53.50;3.20;;;;;;5135133;27;20437;-74
2021/03/29 11:29:04;;;;;;;3.07;2.30;;;54.10;3.30;;;;;;5134772;27;20776;-74
2021/03/29 11:31:31;;;;;;;4.30;2.30;;;54.50;2.30;;;;;;5135115;27;20433;-75
2021/03/29 11:34:00;;;;;;;3.00;1.57;;;54.60;3.10;;;;;;5134901;27;20429;-75
2021/03/29 11:36:27;;;;;;;4.97;2.43;;;55.00;2.40;;;;;;5133256;27;20465;-75
2021/03/29 11:38:54;;;;;;;2.67;2.00;;;55.20;2.20;;;;;;5133727;27;20437;-74
2021/03/29 11:41:21;;;;;;;3.50;1.97;;;55.30;2.40;;;;;;5134513;27;20484;-75
2021/03/29 11:43:51;;;;;;;2.73;1.90;;;55.00;1.90;;;;;;5134180;27;20490;-75
2021/03/29 11:46:18;;;;;;;2.90;2.10;;;54.70;1.90;;;;;;5134077;27;20464;-74
2021/03/29 11:48:45;;;;;;;4.17;2.30;;;54.20;2.20;;;;;;5134356;27;20918;-74
2021/03/29 11:51:11;;;;;;;6.57;2.03;;;54.10;2.50;;;;;;5134673;27;20440;-75
2021/03/29 11:53:38;;;;;;;3.87;2.27;;;53.40;2.10;;;;;;5134062;27;20900;-75
2021/03/29 11:56:06;;;;;;;5.30;3.27;;;51.80;2.30;;;;;;5134529;27;20425;-74
2021/03/29 11:58:33;;;;;;;4.07;2.40;;;50.70;2.50;;;;;;5134131;27;20946;-74
2021/03/29 12:01:10;;;;;;;4.03;2.10;;;50.30;2.20;;;;;;5134526;27;20842;-74
2021/03/29 12:03:43;;;;;;;3.40;2.20;;;49.80;2.50;;;;;;5128794;27;20941;-74
2021/03/29 12:06:13;;;;;;;3.07;2.07;;;49.50;3.00;;;;;;5131838;27;20482;-74
2021/03/29 12:08:46;;;;;;;5.13;2.30;;;49.60;3.10;;;;;;5133219;27;20517;-74
2021/03/29 12:13:58;;;;;;;3.83;2.30;;;49.30;3.00;;;;;;5134250;27;20448;-74
2021/03/29 12:16:27;;;;;;;3.20;2.30;;;49.00;2.80;;;;;;5133796;27;20444;-74
2021/03/29 12:18:59;;;;;;;3.00;2.00;;;48.90;2.80;;;;;;5133763;27;20432;-73
2021/03/29 12:21:31;;;;;;;2.60;2.20;;;48.60;3.60;;;;;;5133606;27;21102;-74
2021/03/29 12:24:00;;;;;;;4.50;2.73;;;48.70;3.70;;;;;;5133692;27;20999;-74
2021/03/29 12:26:28;;;;;;;2.97;2.10;;;48.50;2.80;;;;;;5134140;27;20440;-74
2021/03/29 12:28:56;;;;;;;4.47;2.50;;;48.60;3.20;;;;;;5133534;27;20460;-74
2021/03/29 12:31:23;;;;;;;6.27;2.17;;;48.50;3.20;;;;;;5133258;27;20513;-74
2021/03/29 12:33:51;;;;;;;5.53;2.10;;;48.20;3.20;;;;;;5133897;27;20433;-74
2021/03/29 12:36:19;;;;;;;4.97;2.03;;;48.10;2.80;;;;;;5133439;27;20482;-74
2021/03/29 12:38:52;;;;;;;3.70;2.20;;;47.10;2.60;;;;;;5133927;27;20456;-73
2021/03/29 12:41:21;;;;;;;4.40;2.63;;;46.60;2.90;;;;;;5133642;27;20818;-74
2021/03/29 12:43:53;;;;;;;6.13;2.33;;;45.80;2.80;;;;;;5113261;28;20465;-73
2021/03/29 12:46:23;;;;;;;2.90;2.10;;;44.90;2.70;;;;;;5130319;27;20510;-73
2021/03/29 12:48:52;;;;;;;4.30;2.10;;;43.90;2.70;;;;;;5133358;27;20490;-73
2021/03/29 12:51:20;;;;;;;4.87;2.20;;;43.00;2.60;;;;;;5131849;27;20430;-73
2021/03/29 12:53:49;;;;;;;6.60;5.43;;;42.00;2.50;;;;;;5133209;27;20499;-73
2021/03/29 12:56:17;;;;;;;6.47;5.87;;;41.10;2.70;;;;;;5133318;27;20444;-73
2021/03/29 12:58:44;;;;;;;7.80;3.30;;;40.20;3.20;;;;;;5133582;27;20437;-73
2021/03/29 13:01:11;;;;;;;6.33;2.00;;;39.40;3.10;;;;;;5132762;27;20863;-73
2021/03/29 13:03:41;;;;;;;5.10;1.90;;;38.30;3.30;;;;;;5133596;27;20433;-73
2021/03/29 13:06:15;;;;;;;3.00;1.90;;;37.30;3.10;;;;;;5132995;27;20434;-73
2021/03/29 13:08:43;;;;;;;3.27;1.70;;;36.40;3.80;;;;;;5132950;27;20468;-73
2021/03/29 13:11:23;;;;;;;4.50;2.00;;;35.50;4.70;;;;;;5132837;27;20930;-73
2021/03/29 13:13:50;;;;;;;5.33;2.53;;;34.70;4.50;;;;;;5133063;27;20432;-73
2021/03/29 13:16:17;;;;;;;2.87;1.63;;;34.00;5.20;;;;;;5133352;27;20455;-73
2021/03/29 13:18:45;;;;;;;3.77;2.17;;;33.50;5.40;;;;;;5132670;27;20437;-73